sensor_id;sensor_type;location;lat;lon;timestamp;P1;durP1;ratioP1;P2;durP2;ratioP2
68680;SDS011;55836;49.858;6.756;2022-09-16T00:01:34;7.37;;;3.30;;
68680;SDS011;55836;49.858;6.756;2022-09-16T00:04:00;6.07;;;3.07;;
68680;SDS011;55836;49.858;6.756;2022-09-16T00:06:27;4.47;;;3.00;;
68680;SDS011;55836;49.858;6.756;2022-09-16T00:08:54;9.20;;;3.37;;
68680;SDS011;55836;49.858;6.756;2022-09-16T00:11:20;4.50;;;3.00;;
68680;SDS011;55836;49.858;6.756;2022-09-16T00:13:46;7.10;;;3.00;;
68680;SDS011;55836;49.858;6.756;2022-09-16T00:16:31;4.27;;;3.10;;
68680;SDS011;55836;49.858;6.756;2022-09-16T00:18:58;6.80;;;3.23;;
68680;SDS011;55836;49.858;6.756;2022-09-16T00:21:26;9.37;;;2.70;;
68680;SDS011;55836;49.858;6.756;2022-09-16T00:23:52;8.00;;;2.97;;
68680;SDS011;55836;49.858;6.756;2022-09-16T00:26:18;4.80;;;3.00;;
68680;SDS011;55836;49.858;6.756;2022-09-16T00:28:46;9.13;;;3.60;;
68680;SDS011;55836;49.858;6.756;2022-09-16T00:31:13;5.00;;;3.17;;
68680;SDS011;55836;49.858;6.756;2022-09-16T00:33:40;6.93;;;2.90;;
68680;SDS011;55836;49.858;6.756;2022-09-16T00:36:07;5.63;;;3.10;;
68680;SDS011;55836;49.858;6.756;2022-09-16T00:38:33;4.27;;;2.87;;
68680;SDS011;55836;49.858;6.756;2022-09-16T00:41:00;7.77;;;3.20;;
68680;SDS011;55836;49.858;6.756;2022-09-16T00:43:26;8.80;;;3.03;;
68680;SDS011;55836;49.858;6.756;2022-09-16T00:45:58;8.50;;;3.50;;
68680;SDS011;55836;49.858;6.756;2022-09-16T00:48:27;5.63;;;3.50;;
68680;SDS011;55836;49.858;6.756;2022-09-16T00:51:01;6.43;;;3.33;;
68680;SDS011;55836;49.858;6.756;2022-09-16T00:53:30;8.20;;;3.03;;
68680;SDS011;55836;49.858;6.756;2022-09-16T00:55:57;8.10;;;3.80;;
68680;SDS011;55836;49.858;6.756;2022-09-16T01:00:51;5.87;;;2.93;;
68680;SDS011;55836;49.858;6.756;2022-09-16T01:03:17;6.63;;;3.17;;
68680;SDS011;55836;49.858;6.756;2022-09-16T01:05:43;6.80;;;2.77;;
68680;SDS011;55836;49.858;6.756;2022-09-16T01:08:10;8.80;;;3.10;;
68680;SDS011;55836;49.858;6.756;2022-09-16T01:10:37;7.00;;;2.93;;
68680;SDS011;55836;49.858;6.756;2022-09-16T01:13:05;4.13;;;2.93;;
68680;SDS011;55836;49.858;6.756;2022-09-16T01:15:38;6.73;;;3.07;;
68680;SDS011;55836;49.858;6.756;2022-09-16T01:45:07;9.93;;;3.03;;
68680;SDS011;55836;49.858;6.756;2022-09-16T01:47:41;6.97;;;3.03;;
68680;SDS011;55836;49.858;6.756;2022-09-16T01:52:41;7.53;;;2.70;;
68680;SDS011;55836;49.858;6.756;2022-09-16T01:55:13;5.70;;;2.87;;
68680;SDS011;55836;49.858;6.756;2022-09-16T01:57:54;3.57;;;2.33;;
68680;SDS011;55836;49.858;6.756;2022-09-16T02:00:23;9.23;;;2.70;;
68680;SDS011;55836;49.858;6.756;2022-09-16T02:03:00;4.97;;;2.70;;
68680;SDS011;55836;49.858;6.756;2022-09-16T02:07:58;5.00;;;2.63;;
68680;SDS011;55836;49.858;6.756;2022-09-16T02:10:59;9.53;;;3.00;;
68680;SDS011;55836;49.858;6.756;2022-09-16T02:13:20;7.40;;;2.90;;
68680;SDS011;55836;49.858;6.756;2022-09-16T02:15:47;6.83;;;2.53;;
68680;SDS011;55836;49.858;6.756;2022-09-16T02:18:15;4.50;;;2.97;;
68680;SDS011;55836;49.858;6.756;2022-09-16T02:20:44;10.80;;;3.40;;
68680;SDS011;55836;49.858;6.756;2022-09-16T02:23:16;4.97;;;2.57;;
68680;SDS011;55836;49.858;6.756;2022-09-16T02:25:43;5.80;;;3.00;;
68680;SDS011;55836;49.858;6.756;2022-09-16T02:28:11;7.23;;;2.60;;
68680;SDS011;55836;49.858;6.756;2022-09-16T02:30:41;8.47;;;2.63;;
68680;SDS011;55836;49.858;6.756;2022-09-16T02:33:08;5.30;;;2.57;;
68680;SDS011;55836;49.858;6.756;2022-09-16T02:35:35;5.13;;;2.40;;
68680;SDS011;55836;49.858;6.756;2022-09-16T02:38:03;6.80;;;2.60;;
68680;SDS011;55836;49.858;6.756;2022-09-16T02:40:32;12.90;;;2.90;;
68680;SDS011;55836;49.858;6.756;2022-09-16T02:42:59;6.80;;;2.83;;
68680;SDS011;55836;49.858;6.756;2022-09-16T02:45:29;5.63;;;2.73;;
68680;SDS011;55836;49.858;6.756;2022-09-16T02:48:06;6.27;;;2.70;;
68680;SDS011;55836;49.858;6.756;2022-09-16T02:50:51;6.97;;;3.10;;
68680;SDS011;55836;49.858;6.756;2022-09-16T02:53:23;3.63;;;2.00;;
68680;SDS011;55836;49.858;6.756;2022-09-16T02:55:53;7.53;;;3.03;;
68680;SDS011;55836;49.858;6.756;2022-09-16T02:58:21;5.43;;;2.60;;
68680;SDS011;55836;49.858;6.756;2022-09-16T03:00:48;7.17;;;2.90;;
68680;SDS011;55836;49.858;6.756;2022-09-16T03:03:16;3.57;;;2.10;;
68680;SDS011;55836;49.858;6.756;2022-09-16T03:08:27;4.43;;;2.57;;
68680;SDS011;55836;49.858;6.756;2022-09-16T03:10:53;10.30;;;3.97;;
68680;SDS011;55836;49.858;6.756;2022-09-16T03:13:31;3.20;;;2.30;;
68680;SDS011;55836;49.858;6.756;2022-09-16T03:16:09;5.47;;;2.53;;
68680;SDS011;55836;49.858;6.756;2022-09-16T03:18:41;3.73;;;2.50;;
68680;SDS011;55836;49.858;6.756;2022-09-16T03:29:16;4.40;;;2.60;;
68680;SDS011;55836;49.858;6.756;2022-09-16T03:34:58;4.07;;;2.87;;
68680;SDS011;55836;49.858;6.756;2022-09-16T03:37:05;6.63;;;2.83;;
68680;SDS011;55836;49.858;6.756;2022-09-16T03:39:32;7.60;;;2.70;;
68680;SDS011;55836;49.858;6.756;2022-09-16T03:42:02;4.73;;;2.07;;
68680;SDS011;55836;49.858;6.756;2022-09-16T03:44:33;11.63;;;2.87;;
68680;SDS011;55836;49.858;6.756;2022-09-16T03:46:59;8.77;;;2.43;;
68680;SDS011;55836;49.858;6.756;2022-09-16T03:49:25;6.97;;;2.20;;
68680;SDS011;55836;49.858;6.756;2022-09-16T03:51:51;4.57;;;2.20;;
68680;SDS011;55836;49.858;6.756;2022-09-16T03:54:17;6.60;;;2.60;;
68680;SDS011;55836;49.858;6.756;2022-09-16T03:56:43;6.57;;;2.27;;
68680;SDS011;55836;49.858;6.756;2022-09-16T03:59:09;5.37;;;2.27;;
68680;SDS011;55836;49.858;6.756;2022-09-16T04:01:35;4.37;;;2.20;;
68680;SDS011;55836;49.858;6.756;2022-09-16T04:04:01;6.30;;;2.13;;
68680;SDS011;55836;49.858;6.756;2022-09-16T04:06:28;4.37;;;2.17;;
68680;SDS011;55836;49.858;6.756;2022-09-16T04:08:54;7.50;;;2.33;;
68680;SDS011;55836;49.858;6.756;2022-09-16T04:11:25;6.83;;;2.57;;
68680;SDS011;55836;49.858;6.756;2022-09-16T04:13:54;5.97;;;2.50;;
68680;SDS011;55836;49.858;6.756;2022-09-16T04:16:20;3.93;;;2.27;;
68680;SDS011;55836;49.858;6.756;2022-09-16T04:18:46;5.83;;;2.20;;
68680;SDS011;55836;49.858;6.756;2022-09-16T04:21:12;6.47;;;2.37;;
68680;SDS011;55836;49.858;6.756;2022-09-16T04:23:38;5.00;;;2.33;;
68680;SDS011;55836;49.858;6.756;2022-09-16T04:26:04;6.80;;;2.33;;
68680;SDS011;55836;49.858;6.756;2022-09-16T04:28:31;5.70;;;2.37;;
68680;SDS011;55836;49.858;6.756;2022-09-16T04:30:58;6.97;;;2.40;;
68680;SDS011;55836;49.858;6.756;2022-09-16T04:33:26;5.13;;;2.10;;
68680;SDS011;55836;49.858;6.756;2022-09-16T04:35:52;4.23;;;2.60;;
68680;SDS011;55836;49.858;6.756;2022-09-16T04:38:18;3.70;;;1.90;;
68680;SDS011;55836;49.858;6.756;2022-09-16T04:40:44;5.07;;;1.87;;
68680;SDS011;55836;49.858;6.756;2022-09-16T04:43:10;3.47;;;2.00;;
68680;SDS011;55836;49.858;6.756;2022-09-16T04:45:36;4.03;;;2.13;;
68680;SDS011;55836;49.858;6.756;2022-09-16T04:48:02;3.83;;;2.10;;
68680;SDS011;55836;49.858;6.756;2022-09-16T04:50:28;2.93;;;1.93;;
68680;SDS011;55836;49.858;6.756;2022-09-16T04:52:54;6.17;;;2.27;;
68680;SDS011;55836;49.858;6.756;2022-09-16T04:55:20;4.93;;;2.40;;
68680;SDS011;55836;49.858;6.756;2022-09-16T04:57:47;7.80;;;2.40;;
68680;SDS011;55836;49.858;6.756;2022-09-16T05:00:13;5.07;;;2.60;;
68680;SDS011;55836;49.858;6.756;2022-09-16T05:02:42;6.27;;;2.13;;
68680;SDS011;55836;49.858;6.756;2022-09-16T05:05:08;6.97;;;2.53;;
68680;SDS011;55836;49.858;6.756;2022-09-16T05:07:34;5.70;;;2.50;;
68680;SDS011;55836;49.858;6.756;2022-09-16T05:10:00;9.17;;;2.43;;
68680;SDS011;55836;49.858;6.756;2022-09-16T05:12:26;7.40;;;2.40;;
68680;SDS011;55836;49.858;6.756;2022-09-16T05:14:52;4.70;;;2.37;;
68680;SDS011;55836;49.858;6.756;2022-09-16T05:17:18;6.40;;;1.90;;
68680;SDS011;55836;49.858;6.756;2022-09-16T05:19:44;4.90;;;1.80;;
68680;SDS011;55836;49.858;6.756;2022-09-16T05:22:10;3.97;;;1.80;;
68680;SDS011;55836;49.858;6.756;2022-09-16T05:24:36;3.60;;;1.73;;
68680;SDS011;55836;49.858;6.756;2022-09-16T05:27:02;5.27;;;2.50;;
68680;SDS011;55836;49.858;6.756;2022-09-16T05:29:28;8.27;;;2.53;;
68680;SDS011;55836;49.858;6.756;2022-09-16T05:31:54;4.83;;;1.80;;
68680;SDS011;55836;49.858;6.756;2022-09-16T05:34:21;4.30;;;2.00;;
68680;SDS011;55836;49.858;6.756;2022-09-16T05:36:52;7.17;;;2.33;;
68680;SDS011;55836;49.858;6.756;2022-09-16T05:39:18;3.23;;;2.03;;
68680;SDS011;55836;49.858;6.756;2022-09-16T05:41:45;4.93;;;2.20;;
68680;SDS011;55836;49.858;6.756;2022-09-16T05:44:11;6.13;;;2.50;;
68680;SDS011;55836;49.858;6.756;2022-09-16T05:46:37;7.60;;;2.50;;
68680;SDS011;55836;49.858;6.756;2022-09-16T05:49:08;5.63;;;2.17;;
68680;SDS011;55836;49.858;6.756;2022-09-16T05:51:35;5.37;;;2.20;;
68680;SDS011;55836;49.858;6.756;2022-09-16T05:54:01;4.43;;;2.50;;
68680;SDS011;55836;49.858;6.756;2022-09-16T05:56:27;4.67;;;2.37;;
68680;SDS011;55836;49.858;6.756;2022-09-16T05:58:56;5.87;;;2.10;;
68680;SDS011;55836;49.858;6.756;2022-09-16T06:01:23;5.93;;;2.80;;
68680;SDS011;55836;49.858;6.756;2022-09-16T06:03:51;6.43;;;2.73;;
68680;SDS011;55836;49.858;6.756;2022-09-16T06:08:48;6.43;;;2.73;;
68680;SDS011;55836;49.858;6.756;2022-09-16T06:11:14;4.97;;;2.40;;
68680;SDS011;55836;49.858;6.756;2022-09-16T06:13:40;4.40;;;2.37;;
68680;SDS011;55836;49.858;6.756;2022-09-16T06:16:07;4.83;;;2.30;;
68680;SDS011;55836;49.858;6.756;2022-09-16T06:18:34;6.17;;;2.77;;
68680;SDS011;55836;49.858;6.756;2022-09-16T06:21:04;5.70;;;2.57;;
68680;SDS011;55836;49.858;6.756;2022-09-16T06:23:31;4.30;;;2.23;;
68680;SDS011;55836;49.858;6.756;2022-09-16T06:26:01;5.70;;;2.87;;
68680;SDS011;55836;49.858;6.756;2022-09-16T06:28:28;7.07;;;2.40;;
68680;SDS011;55836;49.858;6.756;2022-09-16T06:31:27;5.33;;;2.50;;
68680;SDS011;55836;49.858;6.756;2022-09-16T06:33:47;5.77;;;2.27;;
68680;SDS011;55836;49.858;6.756;2022-09-16T06:36:16;4.83;;;2.47;;
68680;SDS011;55836;49.858;6.756;2022-09-16T06:38:43;5.97;;;2.40;;
68680;SDS011;55836;49.858;6.756;2022-09-16T06:41:09;3.63;;;2.43;;
68680;SDS011;55836;49.858;6.756;2022-09-16T06:43:36;8.30;;;3.27;;
68680;SDS011;55836;49.858;6.756;2022-09-16T06:46:03;8.43;;;2.57;;
68680;SDS011;55836;49.858;6.756;2022-09-16T06:48:32;9.20;;;2.87;;
68680;SDS011;55836;49.858;6.756;2022-09-16T06:50:59;4.00;;;2.67;;
68680;SDS011;55836;49.858;6.756;2022-09-16T06:53:25;4.60;;;2.50;;
68680;SDS011;55836;49.858;6.756;2022-09-16T06:55:51;6.20;;;2.90;;
68680;SDS011;55836;49.858;6.756;2022-09-16T06:58:17;5.47;;;2.70;;
68680;SDS011;55836;49.858;6.756;2022-09-16T07:00:43;7.40;;;2.60;;
68680;SDS011;55836;49.858;6.756;2022-09-16T07:03:09;5.33;;;2.27;;
68680;SDS011;55836;49.858;6.756;2022-09-16T07:05:36;4.17;;;2.70;;
68680;SDS011;55836;49.858;6.756;2022-09-16T07:08:02;7.80;;;2.87;;
68680;SDS011;55836;49.858;6.756;2022-09-16T07:10:28;3.87;;;2.20;;
68680;SDS011;55836;49.858;6.756;2022-09-16T07:12:54;5.07;;;2.17;;
68680;SDS011;55836;49.858;6.756;2022-09-16T07:15:20;8.10;;;5.10;;
68680;SDS011;55836;49.858;6.756;2022-09-16T07:17:46;6.17;;;3.70;;
68680;SDS011;55836;49.858;6.756;2022-09-16T07:20:12;10.13;;;3.70;;
68680;SDS011;55836;49.858;6.756;2022-09-16T07:22:38;3.70;;;2.87;;
68680;SDS011;55836;49.858;6.756;2022-09-16T07:25:05;5.13;;;3.20;;
68680;SDS011;55836;49.858;6.756;2022-09-16T07:27:31;9.17;;;3.80;;
68680;SDS011;55836;49.858;6.756;2022-09-16T07:29:57;6.53;;;3.40;;
68680;SDS011;55836;49.858;6.756;2022-09-16T07:32:23;8.83;;;4.00;;
68680;SDS011;55836;49.858;6.756;2022-09-16T07:34:49;5.50;;;2.87;;
68680;SDS011;55836;49.858;6.756;2022-09-16T07:37:15;9.07;;;3.13;;
68680;SDS011;55836;49.858;6.756;2022-09-16T07:39:42;6.20;;;2.00;;
68680;SDS011;55836;49.858;6.756;2022-09-16T07:42:08;5.70;;;2.00;;
68680;SDS011;55836;49.858;6.756;2022-09-16T07:44:34;6.27;;;1.90;;
68680;SDS011;55836;49.858;6.756;2022-09-16T07:47:00;5.63;;;1.77;;
68680;SDS011;55836;49.858;6.756;2022-09-16T07:49:26;4.53;;;2.40;;
68680;SDS011;55836;49.858;6.756;2022-09-16T07:51:52;3.83;;;2.03;;
68680;SDS011;55836;49.858;6.756;2022-09-16T07:54:18;3.07;;;1.80;;
68680;SDS011;55836;49.858;6.756;2022-09-16T07:56:45;5.63;;;3.57;;
68680;SDS011;55836;49.858;6.756;2022-09-16T07:59:12;7.20;;;3.93;;
68680;SDS011;55836;49.858;6.756;2022-09-16T08:01:39;7.07;;;3.00;;
68680;SDS011;55836;49.858;6.756;2022-09-16T08:04:05;4.73;;;2.37;;
68680;SDS011;55836;49.858;6.756;2022-09-16T08:06:31;3.77;;;1.93;;
68680;SDS011;55836;49.858;6.756;2022-09-16T08:08:58;7.13;;;1.83;;
68680;SDS011;55836;49.858;6.756;2022-09-16T08:11:25;5.63;;;1.67;;
68680;SDS011;55836;49.858;6.756;2022-09-16T08:13:51;6.00;;;1.77;;
68680;SDS011;55836;49.858;6.756;2022-09-16T08:16:18;6.27;;;2.20;;
68680;SDS011;55836;49.858;6.756;2022-09-16T08:18:45;3.00;;;1.60;;
68680;SDS011;55836;49.858;6.756;2022-09-16T08:21:15;3.30;;;1.70;;
68680;SDS011;55836;49.858;6.756;2022-09-16T08:23:42;5.10;;;2.20;;
68680;SDS011;55836;49.858;6.756;2022-09-16T08:26:08;3.33;;;1.93;;
68680;SDS011;55836;49.858;6.756;2022-09-16T08:28:35;4.97;;;2.60;;
68680;SDS011;55836;49.858;6.756;2022-09-16T08:31:02;3.47;;;1.73;;
68680;SDS011;55836;49.858;6.756;2022-09-16T08:33:28;4.53;;;1.83;;
68680;SDS011;55836;49.858;6.756;2022-09-16T08:35:58;4.87;;;1.67;;
68680;SDS011;55836;49.858;6.756;2022-09-16T08:38:24;3.90;;;1.83;;
68680;SDS011;55836;49.858;6.756;2022-09-16T08:40:51;6.17;;;1.60;;
68680;SDS011;55836;49.858;6.756;2022-09-16T08:45:54;4.67;;;1.60;;
68680;SDS011;55836;49.858;6.756;2022-09-16T08:50:52;6.80;;;1.63;;
68680;SDS011;55836;49.858;6.756;2022-09-16T08:53:20;4.67;;;2.00;;
68680;SDS011;55836;49.858;6.756;2022-09-16T08:55:49;3.70;;;1.53;;
68680;SDS011;55836;49.858;6.756;2022-09-16T08:58:21;3.73;;;1.73;;
68680;SDS011;55836;49.858;6.756;2022-09-16T09:00:48;3.57;;;1.70;;
68680;SDS011;55836;49.858;6.756;2022-09-16T09:03:29;5.33;;;1.80;;
68680;SDS011;55836;49.858;6.756;2022-09-16T09:05:58;3.00;;;2.00;;
68680;SDS011;55836;49.858;6.756;2022-09-16T09:14:14;2.97;;;1.70;;
68680;SDS011;55836;49.858;6.756;2022-09-16T09:34:14;5.97;;;1.60;;
68680;SDS011;55836;49.858;6.756;2022-09-16T09:39:37;2.37;;;1.57;;
68680;SDS011;55836;49.858;6.756;2022-09-16T09:42:09;4.87;;;1.50;;
68680;SDS011;55836;49.858;6.756;2022-09-16T09:44:46;3.10;;;1.40;;
68680;SDS011;55836;49.858;6.756;2022-09-16T09:47:21;5.13;;;1.30;;
68680;SDS011;55836;49.858;6.756;2022-09-16T09:49:56;3.43;;;1.50;;
68680;SDS011;55836;49.858;6.756;2022-09-16T09:54:49;3.03;;;1.50;;
68680;SDS011;55836;49.858;6.756;2022-09-16T09:59:46;2.97;;;1.50;;
68680;SDS011;55836;49.858;6.756;2022-09-16T10:02:18;4.30;;;1.20;;
68680;SDS011;55836;49.858;6.756;2022-09-16T10:04:44;1.77;;;1.20;;
68680;SDS011;55836;49.858;6.756;2022-09-16T10:07:11;2.20;;;1.10;;
68680;SDS011;55836;49.858;6.756;2022-09-16T10:09:43;4.23;;;1.23;;
68680;SDS011;55836;49.858;6.756;2022-09-16T10:12:11;2.23;;;1.07;;
68680;SDS011;55836;49.858;6.756;2022-09-16T10:14:37;1.67;;;1.10;;
68680;SDS011;55836;49.858;6.756;2022-09-16T10:17:04;4.97;;;1.80;;
68680;SDS011;55836;49.858;6.756;2022-09-16T10:19:32;4.03;;;1.80;;
68680;SDS011;55836;49.858;6.756;2022-09-16T10:24:59;4.50;;;1.40;;
68680;SDS011;55836;49.858;6.756;2022-09-16T10:32:39;1.23;;;1.00;;
68680;SDS011;55836;49.858;6.756;2022-09-16T10:35:13;2.17;;;1.07;;
68680;SDS011;55836;49.858;6.756;2022-09-16T10:37:46;3.67;;;1.00;;
68680;SDS011;55836;49.858;6.756;2022-09-16T10:40:14;3.30;;;1.30;;
68680;SDS011;55836;49.858;6.756;2022-09-16T10:42:45;3.17;;;1.07;;
68680;SDS011;55836;49.858;6.756;2022-09-16T10:45:27;3.03;;;1.00;;
68680;SDS011;55836;49.858;6.756;2022-09-16T10:47:57;1.40;;;0.60;;
68680;SDS011;55836;49.858;6.756;2022-09-16T10:50:24;0.93;;;0.63;;
68680;SDS011;55836;49.858;6.756;2022-09-16T10:52:51;1.70;;;0.60;;
68680;SDS011;55836;49.858;6.756;2022-09-16T10:55:25;1.50;;;0.77;;
68680;SDS011;55836;49.858;6.756;2022-09-16T10:57:51;1.53;;;0.70;;
68680;SDS011;55836;49.858;6.756;2022-09-16T11:00:22;3.17;;;0.80;;
68680;SDS011;55836;49.858;6.756;2022-09-16T11:07:57;1.90;;;0.80;;
68680;SDS011;55836;49.858;6.756;2022-09-16T11:10:44;1.20;;;0.70;;
68680;SDS011;55836;49.858;6.756;2022-09-16T11:20:44;1.37;;;0.90;;
68680;SDS011;55836;49.858;6.756;2022-09-16T11:28:47;1.33;;;1.07;;
68680;SDS011;55836;49.858;6.756;2022-09-16T11:44:32;2.27;;;1.20;;
68680;SDS011;55836;49.858;6.756;2022-09-16T11:57:18;1.83;;;0.90;;
68680;SDS011;55836;49.858;6.756;2022-09-16T11:59:48;1.47;;;0.90;;
68680;SDS011;55836;49.858;6.756;2022-09-16T12:04:47;2.70;;;1.20;;
68680;SDS011;55836;49.858;6.756;2022-09-16T12:07:18;3.50;;;1.20;;
68680;SDS011;55836;49.858;6.756;2022-09-16T12:09:49;2.87;;;0.80;;
68680;SDS011;55836;49.858;6.756;2022-09-16T12:12:22;1.53;;;0.80;;
68680;SDS011;55836;49.858;6.756;2022-09-16T12:14:53;1.37;;;0.80;;
68680;SDS011;55836;49.858;6.756;2022-09-16T12:17:21;2.27;;;1.10;;
68680;SDS011;55836;49.858;6.756;2022-09-16T12:25:41;1.97;;;1.00;;
68680;SDS011;55836;49.858;6.756;2022-09-16T12:28:16;1.07;;;0.90;;
68680;SDS011;55836;49.858;6.756;2022-09-16T12:30:45;1.17;;;0.90;;
68680;SDS011;55836;49.858;6.756;2022-09-16T12:33:26;2.43;;;0.90;;
68680;SDS011;55836;49.858;6.756;2022-09-16T12:36:07;1.90;;;0.80;;
68680;SDS011;55836;49.858;6.756;2022-09-16T12:38:34;2.10;;;0.80;;
68680;SDS011;55836;49.858;6.756;2022-09-16T12:48:45;3.10;;;1.30;;
68680;SDS011;55836;49.858;6.756;2022-09-16T12:51:22;1.40;;;0.60;;
68680;SDS011;55836;49.858;6.756;2022-09-16T12:56:42;1.20;;;0.63;;
68680;SDS011;55836;49.858;6.756;2022-09-16T13:01:55;0.80;;;0.80;;
68680;SDS011;55836;49.858;6.756;2022-09-16T13:07:14;2.07;;;0.63;;
68680;SDS011;55836;49.858;6.756;2022-09-16T13:09:43;0.60;;;0.60;;
68680;SDS011;55836;49.858;6.756;2022-09-16T13:12:21;1.13;;;0.63;;
68680;SDS011;55836;49.858;6.756;2022-09-16T13:14:53;1.37;;;0.83;;
68680;SDS011;55836;49.858;6.756;2022-09-16T13:19:52;0.90;;;0.60;;
68680;SDS011;55836;49.858;6.756;2022-09-16T13:22:21;2.07;;;0.90;;
68680;SDS011;55836;49.858;6.756;2022-09-16T13:27:33;0.73;;;0.70;;
68680;SDS011;55836;49.858;6.756;2022-09-16T13:35:19;0.90;;;0.80;;
68680;SDS011;55836;49.858;6.756;2022-09-16T13:37:46;0.60;;;0.60;;
68680;SDS011;55836;49.858;6.756;2022-09-16T13:40:20;1.03;;;0.60;;
68680;SDS011;55836;49.858;6.756;2022-09-16T13:42:48;2.70;;;0.80;;
68680;SDS011;55836;49.858;6.756;2022-09-16T13:45:30;0.60;;;0.60;;
68680;SDS011;55836;49.858;6.756;2022-09-16T13:47:57;3.13;;;1.07;;
68680;SDS011;55836;49.858;6.756;2022-09-16T13:50:24;1.53;;;0.70;;
68680;SDS011;55836;49.858;6.756;2022-09-16T13:52:51;0.93;;;0.60;;
68680;SDS011;55836;49.858;6.756;2022-09-16T13:55:26;2.70;;;0.97;;
68680;SDS011;55836;49.858;6.756;2022-09-16T13:57:55;0.83;;;0.70;;
68680;SDS011;55836;49.858;6.756;2022-09-16T14:00:28;0.70;;;0.70;;
68680;SDS011;55836;49.858;6.756;2022-09-16T14:03:10;0.50;;;0.50;;
68680;SDS011;55836;49.858;6.756;2022-09-16T14:13:31;1.80;;;0.87;;
68680;SDS011;55836;49.858;6.756;2022-09-16T14:15:59;1.13;;;0.60;;
68680;SDS011;55836;49.858;6.756;2022-09-16T14:18:28;0.60;;;0.60;;
68680;SDS011;55836;49.858;6.756;2022-09-16T14:20:59;1.90;;;0.70;;
68680;SDS011;55836;49.858;6.756;2022-09-16T14:23:26;0.60;;;0.60;;
68680;SDS011;55836;49.858;6.756;2022-09-16T14:25:52;0.43;;;0.43;;
68680;SDS011;55836;49.858;6.756;2022-09-16T14:28:19;2.07;;;1.00;;
68680;SDS011;55836;49.858;6.756;2022-09-16T14:33:12;0.50;;;0.50;;
68680;SDS011;55836;49.858;6.756;2022-09-16T14:35:38;1.53;;;0.70;;
68680;SDS011;55836;49.858;6.756;2022-09-16T14:38:04;1.13;;;0.70;;
68680;SDS011;55836;49.858;6.756;2022-09-16T14:40:31;0.80;;;0.70;;
68680;SDS011;55836;49.858;6.756;2022-09-16T14:42:59;2.80;;;0.70;;
68680;SDS011;55836;49.858;6.756;2022-09-16T14:45:28;0.90;;;0.80;;
68680;SDS011;55836;49.858;6.756;2022-09-16T14:47:55;0.83;;;0.70;;
68680;SDS011;55836;49.858;6.756;2022-09-16T14:50:31;1.37;;;0.80;;
68680;SDS011;55836;49.858;6.756;2022-09-16T14:53:02;0.77;;;0.77;;
68680;SDS011;55836;49.858;6.756;2022-09-16T14:55:29;0.83;;;0.83;;
68680;SDS011;55836;49.858;6.756;2022-09-16T14:57:59;1.00;;;0.80;;
68680;SDS011;55836;49.858;6.756;2022-09-16T15:00:28;1.63;;;0.80;;
68680;SDS011;55836;49.858;6.756;2022-09-16T15:02:57;0.80;;;0.70;;
68680;SDS011;55836;49.858;6.756;2022-09-16T15:07:52;1.10;;;0.57;;
68680;SDS011;55836;49.858;6.756;2022-09-16T15:10:20;0.67;;;0.67;;
68680;SDS011;55836;49.858;6.756;2022-09-16T15:12:52;1.43;;;0.80;;
68680;SDS011;55836;49.858;6.756;2022-09-16T15:20:24;0.87;;;0.83;;
68680;SDS011;55836;49.858;6.756;2022-09-16T15:22:51;1.20;;;1.00;;
68680;SDS011;55836;49.858;6.756;2022-09-16T15:25:21;1.50;;;0.80;;
68680;SDS011;55836;49.858;6.756;2022-09-16T15:27:48;2.60;;;1.07;;
68680;SDS011;55836;49.858;6.756;2022-09-16T15:30:21;1.87;;;0.90;;
68680;SDS011;55836;49.858;6.756;2022-09-16T15:32:47;2.20;;;1.13;;
68680;SDS011;55836;49.858;6.756;2022-09-16T15:35:21;0.80;;;0.80;;
68680;SDS011;55836;49.858;6.756;2022-09-16T15:37:47;2.17;;;0.80;;
68680;SDS011;55836;49.858;6.756;2022-09-16T15:40:29;2.93;;;1.00;;
68680;SDS011;55836;49.858;6.756;2022-09-16T15:43:03;1.50;;;0.90;;
68680;SDS011;55836;49.858;6.756;2022-09-16T15:45:35;3.37;;;1.10;;
68680;SDS011;55836;49.858;6.756;2022-09-16T15:48:08;1.57;;;1.07;;
68680;SDS011;55836;49.858;6.756;2022-09-16T15:50:58;1.03;;;0.90;;
68680;SDS011;55836;49.858;6.756;2022-09-16T15:55:58;1.60;;;0.73;;
68680;SDS011;55836;49.858;6.756;2022-09-16T16:03:23;1.47;;;0.80;;
68680;SDS011;55836;49.858;6.756;2022-09-16T16:05:50;1.33;;;1.07;;
68680;SDS011;55836;49.858;6.756;2022-09-16T16:11:05;0.80;;;0.80;;
68680;SDS011;55836;49.858;6.756;2022-09-16T16:13:31;0.67;;;0.63;;
68680;SDS011;55836;49.858;6.756;2022-09-16T16:15:58;2.17;;;1.00;;
68680;SDS011;55836;49.858;6.756;2022-09-16T16:18:24;1.40;;;1.03;;
68680;SDS011;55836;49.858;6.756;2022-09-16T16:20:50;1.23;;;0.83;;
68680;SDS011;55836;49.858;6.756;2022-09-16T16:23:16;1.80;;;0.80;;
68680;SDS011;55836;49.858;6.756;2022-09-16T16:25:42;2.93;;;1.10;;
68680;SDS011;55836;49.858;6.756;2022-09-16T16:28:08;1.73;;;1.10;;
68680;SDS011;55836;49.858;6.756;2022-09-16T16:30:34;1.10;;;0.60;;
68680;SDS011;55836;49.858;6.756;2022-09-16T16:33:01;2.60;;;1.00;;
68680;SDS011;55836;49.858;6.756;2022-09-16T16:35:27;0.87;;;0.87;;
68680;SDS011;55836;49.858;6.756;2022-09-16T16:37:52;1.57;;;1.10;;
68680;SDS011;55836;49.858;6.756;2022-09-16T16:40:18;2.13;;;0.90;;
68680;SDS011;55836;49.858;6.756;2022-09-16T16:42:45;1.10;;;0.90;;
68680;SDS011;55836;49.858;6.756;2022-09-16T16:45:11;0.83;;;0.70;;
68680;SDS011;55836;49.858;6.756;2022-09-16T16:47:38;2.10;;;1.37;;
68680;SDS011;55836;49.858;6.756;2022-09-16T16:50:04;0.77;;;0.77;;
68680;SDS011;55836;49.858;6.756;2022-09-16T16:52:30;1.20;;;0.83;;
68680;SDS011;55836;49.858;6.756;2022-09-16T16:54:56;2.53;;;1.27;;
68680;SDS011;55836;49.858;6.756;2022-09-16T16:57:22;2.10;;;1.10;;
68680;SDS011;55836;49.858;6.756;2022-09-16T16:59:48;1.63;;;1.07;;
68680;SDS011;55836;49.858;6.756;2022-09-16T17:02:15;2.50;;;1.20;;
68680;SDS011;55836;49.858;6.756;2022-09-16T17:04:41;1.33;;;0.90;;
68680;SDS011;55836;49.858;6.756;2022-09-16T17:07:07;0.93;;;0.80;;
68680;SDS011;55836;49.858;6.756;2022-09-16T17:09:35;0.90;;;0.90;;
68680;SDS011;55836;49.858;6.756;2022-09-16T17:12:01;1.00;;;0.80;;
68680;SDS011;55836;49.858;6.756;2022-09-16T17:14:29;0.93;;;0.83;;
68680;SDS011;55836;49.858;6.756;2022-09-16T17:16:55;1.70;;;0.97;;
68680;SDS011;55836;49.858;6.756;2022-09-16T17:19:22;0.87;;;0.80;;
68680;SDS011;55836;49.858;6.756;2022-09-16T17:21:48;1.17;;;0.83;;
68680;SDS011;55836;49.858;6.756;2022-09-16T17:24:15;1.23;;;0.70;;
68680;SDS011;55836;49.858;6.756;2022-09-16T17:26:41;1.53;;;0.67;;
68680;SDS011;55836;49.858;6.756;2022-09-16T17:29:07;1.20;;;0.70;;
68680;SDS011;55836;49.858;6.756;2022-09-16T17:31:34;1.50;;;0.83;;
68680;SDS011;55836;49.858;6.756;2022-09-16T17:34:01;1.20;;;0.90;;
68680;SDS011;55836;49.858;6.756;2022-09-16T17:36:29;1.80;;;0.87;;
68680;SDS011;55836;49.858;6.756;2022-09-16T17:38:56;1.70;;;0.67;;
68680;SDS011;55836;49.858;6.756;2022-09-16T17:41:22;1.70;;;1.00;;
68680;SDS011;55836;49.858;6.756;2022-09-16T17:43:51;3.47;;;0.87;;
68680;SDS011;55836;49.858;6.756;2022-09-16T17:46:17;1.53;;;0.80;;
68680;SDS011;55836;49.858;6.756;2022-09-16T17:48:44;1.60;;;1.03;;
68680;SDS011;55836;49.858;6.756;2022-09-16T17:51:10;2.17;;;1.57;;
68680;SDS011;55836;49.858;6.756;2022-09-16T17:53:36;1.20;;;1.10;;
68680;SDS011;55836;49.858;6.756;2022-09-16T17:58:31;1.37;;;0.90;;
68680;SDS011;55836;49.858;6.756;2022-09-16T18:03:54;1.10;;;1.00;;
68680;SDS011;55836;49.858;6.756;2022-09-16T18:06:25;1.13;;;1.03;;
68680;SDS011;55836;49.858;6.756;2022-09-16T18:08:52;2.40;;;1.00;;
68680;SDS011;55836;49.858;6.756;2022-09-16T18:11:18;2.87;;;1.40;;
68680;SDS011;55836;49.858;6.756;2022-09-16T18:13:45;2.40;;;0.90;;
68680;SDS011;55836;49.858;6.756;2022-09-16T18:16:12;2.65;;;1.10;;
68680;SDS011;55836;49.858;6.756;2022-09-16T18:18:39;1.40;;;0.83;;
68680;SDS011;55836;49.858;6.756;2022-09-16T18:21:06;3.23;;;0.90;;